Flight Track Log - Related Links

Times and Time Zones

All times are in EDT time to prevent confusion due to time zone crossing. See the FLG3776 flight status page for this flight to view local times or setup timezone preferences in your user account.

Time Position Orientation Groundspeed Altitude Reporting Facility
EDT Latitude Longitude Course Direction KTS MPH feet Rate Location/Type
Tue 09:06:55 PM 44.9333 -93.2167 117° Southeast 193 222 3,700  Level Minneapolis TRACON
Tue 09:08:02 PM 44.9933 -93.1806 23° Northeast 249 287 6,800 2,813 Climbing Minneapolis Center
Tue 09:09:00 PM 44.7066 -92.6394 118° Southeast  Level Estimated
Tue 09:09:03 PM 44.9733 -93.0725 105° East 286 329 9,700  Level Minneapolis Center
Tue 09:10:00 PM 44.6448 -92.5076 123° Southeast  Level FlightAware Approximate
Tue 09:10:17 PM 44.9283 -92.9775 124° Southeast 291 335 11,600  Level Minneapolis Center
Tue 09:11:00 PM 44.6048 -92.3506 117° Southeast  Level FlightAware Approximate
Tue 09:11:19 PM 44.8703 -92.8481 122° Southeast 323 372 14,200  Level Minneapolis Center
Tue 09:12:00 PM 44.5579 -92.2217 117° Southeast  Level FlightAware Approximate
Tue 09:12:21 PM 44.8197 -92.7242 120° Southeast 364 419 15,100  Level Minneapolis Center
Tue 09:13:22 PM 44.7664 -92.5944 120° Southeast 381 438 16,000 1,073 Climbing Minneapolis Center
Tue 09:14:24 PM 44.7003 -92.4350 120° Southeast 392 451 17,300 1,161 Climbing Minneapolis Center
Tue 09:15:26 PM 44.6447 -92.3033 121° Southeast 393 452 18,400 1,317 Climbing Minneapolis Center
Tue 09:16:27 PM 44.6017 -92.1569 112° Southeast 409 471 20,000 1,171 Climbing Minneapolis Center
Tue 09:17:29 PM 44.5792 -91.9981 101° East 416 479 20,800 829 Climbing Minneapolis Center
Tue 09:18:30 PM 44.5761 -91.8308 91° East 431 496 21,700 878 Climbing Minneapolis Center
Tue 09:19:32 PM 44.5894 -91.6567 84° East 446 513 22,600 823 Climbing Minneapolis Center
Tue 09:20:34 PM 44.6047 -91.4819 83° East 453 521 23,400 732 Climbing Minneapolis Center
Tue 09:21:35 PM 44.6164 -91.3078 85° East 451 519 24,100 732 Climbing Minneapolis Center
Tue 09:22:37 PM 44.6308 -91.0978 84° East 453 521 24,900 878 Climbing Minneapolis Center
Tue 09:23:38 PM 44.6453 -90.9197 83° East 459 528 25,900 1,024 Climbing Minneapolis Center
Tue 09:24:40 PM 44.6186 -90.7578 103° East 439 505 27,000 537 Climbing Minneapolis Center
Tue 09:25:41 PM 44.5492 -90.6294 127° Southeast 426 490 27,000  Level Minneapolis Center
Tue 09:26:43 PM 44.4653 -90.5042 133° Southeast 437 503 27,000  Level Minneapolis Center
Tue 09:27:44 PM 44.3756 -90.3419 128° Southeast 455 524 27,000  Level Minneapolis Center
Tue 09:28:45 PM 44.3083 -90.1875 121° Southeast 464 534 27,000  Level Minneapolis Center
Tue 09:29:59 PM 44.2450 -90.0361 120° Southeast 456 525 27,000  Level Minneapolis Center
Tue 09:31:01 PM 44.1692 -89.8586 121° Southeast 455 524 27,000  Level Minneapolis Center
Tue 09:32:02 PM 44.1056 -89.7108 121° Southeast 448 516 27,000  Level Minneapolis Center
Tue 09:33:03 PM 44.0422 -89.5617 121° Southeast 447 514 27,000  Level Minneapolis Center
Tue 09:34:05 PM 43.9783 -89.4139 121° Southeast 446 513 27,000  Level Minneapolis Center
Tue 09:35:06 PM 43.9256 -89.2897 121° Southeast 447 514 27,000  Level Minneapolis Center
Tue 09:36:07 PM 43.8400 -89.0947 121° Southeast 443 510 27,000  Level Minneapolis Center
Tue 09:37:09 PM 43.7767 -88.9497 121° Southeast 440 506 27,000  Level Minneapolis Center
Tue 09:38:10 PM 43.7128 -88.8044 121° Southeast 441 507 27,000  Level Minneapolis Center
Tue 09:39:11 PM 43.6492 -88.6597 121° Southeast 439 505 27,000  Level Minneapolis Center
Tue 09:39:49 PM 43.6067 -88.5625 121° Southeast 440 506 27,000  Level Chicago Center
Tue 09:40:51 PM 43.5400 -88.4128 122° Southeast 446 513 27,000  Level Chicago Center
Tue 09:41:52 PM 43.4725 -88.2642 122° Southeast 446 513 27,000  Level Chicago Center
Tue 09:42:54 PM 43.4064 -88.1186 122° Southeast 446 513 27,000  Level Chicago Center
Tue 09:43:55 PM 43.3408 -87.9744 122° Southeast 445 512 27,000  Level Chicago Center
Tue 09:44:57 PM 43.2753 -87.8300 122° Southeast 444 511 27,000  Level Chicago Center
Tue 09:45:58 PM 43.2092 -87.6869 122° Southeast 444 511 27,000  Level Chicago Center
Tue 09:47:00 PM 43.1442 -87.5428 122° Southeast 444 511 27,000  Level Chicago Center
Tue 09:48:01 PM 43.0772 -87.4000 123° Southeast 445 512 27,000  Level Chicago Center
Tue 09:49:02 PM 43.0083 -87.2497 122° Southeast 443 510 27,000  Level Chicago Center
Tue 09:50:04 PM 42.9417 -87.1094 123° Southeast 441 507 27,000 -537 Level Chicago Center
Tue 09:51:05 PM 42.8758 -86.9689 123° Southeast 443 510 25,900 -1,721 Descending Chicago Center
Tue 09:52:06 PM 42.8128 -86.8339 122° Southeast 429 494 23,500 -2,537 Descending Chicago Center
Tue 09:53:08 PM 42.7414 -86.6836 123° Southeast 399 459 20,700 -2,195 Descending Chicago Center
Tue 09:54:09 PM 42.6861 -86.5675 123° Southeast 374 430 19,000 -1,820 Descending Chicago Center
Tue 09:55:10 PM 42.6317 -86.4525 123° Southeast 367 422 17,000 -1,951 Descending Chicago Center
Tue 09:56:12 PM 42.5753 -86.3367 123° Southeast 369 425 15,000 -1,902 Descending Chicago Center
Tue 09:57:13 PM 42.5214 -86.2214 122° Southeast 367 422 13,100 -1,918 Descending Chicago Center
Tue 09:58:14 PM 42.4683 -86.1131 124° Southeast 351 404 11,100 -1,073 Descending Chicago Center
Tue 09:59:16 PM 42.4281 -86.0158 119° Southeast 300 345 10,900 -634 Descending Chicago Center
Tue 10:00:17 PM 42.3917 -85.9253 119° Southeast 277 319 9,800 -2,361 Descending Chicago Center
Tue 10:01:18 PM 42.3681 -85.8028 105° East 296 341 6,100 -2,852 Descending Chicago Center
Tue 10:02:19 PM 42.3711 -85.7006 88° East 282 325 4,000 -1,770 Descending Chicago Center
Tue 10:03:20 PM 42.3706 -85.6111 90° East 261 300 2,500 -780 Descending Chicago Center
Tue 10:04:22 PM 42.3367 -85.5753 142° Southeast 168 193 2,400 -97 Descending Chicago Center

Login

Don't have an account? Register now (free) for customized features, flight alerts, and more!